createdAt,value
2022-09-01T00:00:18.890Z,17.30
2022-09-01T00:02:50.784Z,17.30
2022-09-01T00:05:19.142Z,17.40
2022-09-01T00:07:47.157Z,17.20
2022-09-01T00:10:15.387Z,17.20
2022-09-01T00:12:43.476Z,17.20
2022-09-01T00:15:13.070Z,17.10
2022-09-01T00:17:41.143Z,17.10
2022-09-01T00:20:14.900Z,17.00
2022-09-01T00:22:44.959Z,17.10
2022-09-01T00:25:13.200Z,17.00
2022-09-01T00:27:41.149Z,17.00
2022-09-01T00:30:13.250Z,17.00
2022-09-01T00:32:41.319Z,17.00
2022-09-01T00:35:10.849Z,16.90
2022-09-01T00:37:38.966Z,17.00
2022-09-01T00:40:09.779Z,17.00
2022-09-01T00:42:37.725Z,17.00
2022-09-01T00:45:07.645Z,16.90
2022-09-01T00:47:37.766Z,16.90
2022-09-01T00:50:08.637Z,16.90
2022-09-01T00:52:43.394Z,16.80
2022-09-01T00:55:16.004Z,16.80
2022-09-01T00:57:45.209Z,16.80
2022-09-01T01:00:18.778Z,16.80
2022-09-01T01:02:47.565Z,16.80
2022-09-01T01:05:16.983Z,16.80
2022-09-01T01:07:47.689Z,16.70
2022-09-01T01:10:22.340Z,16.70
2022-09-01T01:12:51.785Z,16.70
2022-09-01T01:15:20.348Z,16.70
2022-09-01T01:17:48.365Z,16.70
2022-09-01T01:20:35.201Z,16.70
2022-09-01T01:23:11.517Z,16.70
2022-09-01T01:25:44.234Z,16.70
2022-09-01T01:28:15.752Z,16.60
2022-09-01T01:30:52.419Z,16.60
2022-09-01T01:33:20.896Z,16.60
2022-09-01T01:35:50.630Z,16.60
2022-09-01T01:38:20.868Z,16.60
2022-09-01T01:40:53.810Z,16.60
2022-09-01T01:43:23.250Z,16.60
2022-09-01T01:45:53.512Z,16.60
2022-09-01T01:48:23.843Z,16.50
2022-09-01T01:50:52.987Z,16.50
2022-09-01T01:53:21.896Z,16.50
2022-09-01T01:55:51.631Z,16.40
2022-09-01T01:58:20.835Z,16.40
2022-09-01T02:00:50.625Z,16.40
2022-09-01T02:03:22.017Z,16.40
2022-09-01T02:05:52.824Z,16.40
2022-09-01T02:08:22.819Z,16.40
2022-09-01T02:10:54.063Z,16.30
2022-09-01T02:13:26.692Z,16.30
2022-09-01T02:15:57.081Z,16.30
2022-09-01T02:18:27.589Z,16.20
2022-09-01T02:20:58.871Z,16.20
2022-09-01T02:23:26.975Z,16.20
2022-09-01T02:26:15.605Z,16.20
2022-09-01T02:28:45.468Z,16.20
2022-09-01T02:31:13.884Z,16.10
2022-09-01T02:33:45.582Z,16.20
2022-09-01T02:36:16.119Z,16.10
2022-09-01T02:38:46.868Z,16.10
2022-09-01T02:41:25.227Z,16.10
2022-09-01T02:43:54.216Z,16.10
2022-09-01T02:46:24.519Z,16.10
2022-09-01T02:48:53.350Z,16.00
2022-09-01T02:51:25.146Z,16.00
2022-09-01T02:53:53.842Z,16.00
2022-09-01T02:56:25.854Z,15.90
2022-09-01T02:58:55.315Z,15.90
2022-09-01T03:01:25.465Z,15.90
2022-09-01T03:03:55.465Z,15.90
2022-09-01T03:06:24.816Z,15.80
2022-09-01T03:08:54.313Z,15.80
2022-09-01T03:11:24.869Z,15.90
2022-09-01T03:13:53.911Z,15.80
2022-09-01T03:16:23.535Z,15.80
2022-09-01T03:18:51.963Z,15.80
2022-09-01T03:21:20.270Z,15.80
2022-09-01T03:23:49.815Z,15.80
2022-09-01T03:26:21.083Z,15.90
2022-09-01T03:28:51.069Z,15.90
2022-09-01T03:31:20.478Z,15.80
2022-09-01T03:33:49.308Z,15.80
2022-09-01T03:36:20.213Z,15.80
2022-09-01T03:38:49.799Z,15.70
2022-09-01T03:41:21.627Z,15.80
2022-09-01T03:43:55.016Z,15.70
2022-09-01T03:46:24.468Z,15.70
2022-09-01T03:48:56.148Z,15.70
2022-09-01T03:51:25.384Z,15.70
2022-09-01T03:53:55.446Z,15.50
2022-09-01T03:56:24.162Z,15.70
2022-09-01T03:58:53.722Z,15.60
2022-09-01T04:01:22.025Z,15.50
2022-09-01T04:03:52.973Z,15.50
2022-09-01T04:06:24.406Z,15.50
2022-09-01T04:09:02.976Z,15.50
2022-09-01T04:11:32.397Z,15.50
2022-09-01T04:14:02.212Z,15.50
2022-09-01T04:16:49.362Z,15.40
2022-09-01T04:19:25.271Z,15.60
2022-09-01T04:21:55.153Z,15.40
2022-09-01T04:24:24.995Z,15.40
2022-09-01T04:26:54.529Z,15.40
2022-09-01T04:29:27.620Z,15.50
2022-09-01T04:31:56.002Z,15.30
2022-09-01T04:34:24.913Z,15.30
2022-09-01T04:36:56.850Z,15.30
2022-09-01T04:39:29.438Z,15.40
2022-09-01T04:41:57.480Z,15.30
2022-09-01T04:44:28.139Z,15.30
2022-09-01T04:46:57.216Z,15.20
2022-09-01T04:49:26.521Z,15.00
2022-09-01T04:51:57.351Z,15.20
2022-09-01T04:54:25.480Z,15.20
2022-09-01T04:56:55.016Z,15.20
2022-09-01T04:59:24.684Z,15.10
2022-09-01T05:01:57.624Z,15.10
2022-09-01T05:04:28.550Z,15.00
2022-09-01T05:07:01.062Z,15.00
2022-09-01T05:09:31.009Z,15.10
2022-09-01T05:12:08.890Z,15.00
2022-09-01T05:14:37.095Z,15.00
2022-09-01T05:17:10.555Z,15.00
2022-09-01T05:19:39.417Z,15.00
2022-09-01T05:22:08.730Z,15.10
2022-09-01T05:24:41.799Z,15.10
2022-09-01T05:27:14.522Z,15.20
2022-09-01T05:29:42.569Z,15.20
2022-09-01T05:32:12.645Z,15.20
2022-09-01T05:34:43.828Z,15.20
2022-09-01T05:37:13.167Z,15.30
2022-09-01T05:39:41.221Z,15.50
2022-09-01T05:42:09.738Z,15.30
2022-09-01T05:44:44.134Z,15.30
2022-09-01T05:47:20.218Z,15.30
2022-09-01T05:49:49.978Z,15.30
2022-09-01T05:52:25.135Z,15.30
2022-09-01T05:54:57.941Z,15.40
2022-09-01T05:57:34.983Z,15.50
2022-09-01T06:00:11.134Z,15.50
2022-09-01T06:02:43.419Z,15.50
2022-09-01T06:05:13.776Z,15.60
2022-09-01T06:07:43.037Z,15.60
2022-09-01T06:10:12.901Z,15.70
2022-09-01T06:12:41.558Z,15.70
2022-09-01T06:15:16.149Z,15.70
2022-09-01T06:17:46.357Z,15.70
2022-09-01T06:20:18.218Z,15.90
2022-09-01T06:22:47.759Z,15.90
2022-09-01T06:25:17.379Z,16.00
2022-09-01T06:27:46.180Z,16.00
2022-09-01T06:30:23.018Z,16.00
2022-09-01T06:32:53.664Z,16.10
2022-09-01T06:35:25.226Z,16.10
2022-09-01T06:37:54.354Z,16.20
2022-09-01T06:40:22.414Z,16.30
2022-09-01T06:42:52.438Z,16.50
2022-09-01T06:45:23.426Z,16.40
2022-09-01T06:48:00.103Z,16.40
2022-09-01T06:56:08.996Z,16.40
2022-09-01T06:58:37.077Z,16.60
2022-09-01T07:01:19.646Z,16.70
2022-09-01T07:03:52.061Z,16.70
2022-09-01T07:09:22.245Z,16.90
2022-09-01T07:12:37.367Z,17.00
2022-09-01T07:17:42.380Z,17.20
2022-09-01T07:20:23.461Z,17.30
2022-09-01T07:23:08.151Z,17.20
2022-09-01T07:28:36.125Z,17.50
2022-09-01T07:39:55.063Z,17.80
2022-09-01T07:39:57.488Z,16.50
2022-09-01T07:45:29.193Z,17.90
2022-09-01T07:48:03.712Z,18.10
2022-09-01T07:51:34.187Z,18.20
2022-09-01T07:53:23.010Z,18.20
2022-09-01T07:55:52.660Z,18.30
2022-09-01T07:58:23.030Z,18.40
2022-09-01T08:00:53.256Z,18.40
2022-09-01T08:03:25.189Z,18.50
2022-09-01T08:05:57.853Z,18.50
2022-09-01T08:08:29.291Z,18.70
2022-09-01T08:11:05.441Z,18.60
2022-09-01T08:13:41.215Z,18.60
2022-09-01T08:16:16.949Z,18.90
2022-09-01T08:18:50.483Z,18.80
2022-09-01T08:21:22.080Z,18.80
2022-09-01T08:23:52.299Z,18.80
2022-09-01T08:26:22.827Z,19.00
2022-09-01T08:28:58.196Z,19.00
2022-09-01T08:31:30.812Z,18.90
2022-09-01T08:34:00.136Z,19.10
2022-09-01T08:36:28.184Z,19.10
2022-09-01T08:38:57.607Z,19.30
2022-09-01T08:41:37.585Z,19.30
2022-09-01T08:44:15.485Z,19.40
2022-09-01T08:46:44.821Z,19.50
2022-09-01T08:49:25.186Z,19.60
2022-09-01T08:52:01.682Z,19.70
2022-09-01T08:54:42.220Z,19.70
2022-09-01T08:57:17.527Z,20.00
2022-09-01T08:59:45.499Z,19.90
2022-09-01T09:02:31.613Z,20.00
2022-09-01T09:05:20.860Z,20.20
2022-09-01T09:08:07.151Z,20.20
2022-09-01T09:10:43.696Z,20.30
2022-09-01T09:13:17.378Z,20.50
2022-09-01T09:15:52.640Z,20.60
2022-09-01T09:18:39.003Z,20.60
2022-09-01T09:21:13.552Z,20.70
2022-09-01T09:23:47.524Z,20.80
2022-09-01T09:26:22.278Z,20.90
2022-09-01T09:28:50.891Z,21.10
2022-09-01T09:31:30.632Z,21.30
2022-09-01T09:34:00.067Z,21.40
2022-09-01T09:36:35.879Z,21.70
2022-09-01T09:39:13.806Z,21.70
2022-09-01T09:41:44.212Z,21.90
2022-09-01T09:44:25.468Z,21.90
2022-09-01T09:46:53.948Z,22.10
2022-09-01T09:49:36.101Z,22.10
2022-09-01T09:52:18.191Z,22.20
2022-09-01T09:55:05.079Z,22.50
2022-09-01T09:57:41.577Z,22.60
2022-09-01T10:00:22.283Z,22.80
2022-09-01T10:03:08.594Z,22.80
2022-09-01T10:05:43.233Z,22.90
2022-09-01T10:08:14.952Z,23.00
2022-09-01T10:10:58.890Z,23.10
2022-09-01T10:13:31.427Z,23.30
2022-09-01T10:16:03.785Z,23.50
2022-09-01T10:18:40.805Z,23.70
2022-09-01T10:21:14.410Z,23.80
2022-09-01T10:23:43.280Z,23.90
2022-09-01T10:26:18.785Z,24.00
2022-09-01T10:28:57.847Z,24.20
2022-09-01T10:31:29.548Z,24.30
2022-09-01T10:34:02.852Z,24.60
2022-09-01T10:36:35.362Z,24.70
2022-09-01T10:39:06.524Z,24.90
2022-09-01T10:41:53.287Z,24.90
2022-09-01T10:44:33.984Z,24.90
2022-09-01T10:47:06.371Z,25.20
2022-09-01T10:50:07.491Z,25.10
2022-09-01T10:53:08.499Z,25.10
2022-09-01T10:55:41.304Z,25.20
2022-09-01T11:02:28.746Z,25.30
2022-09-01T11:05:17.968Z,25.20
2022-09-01T11:08:03.150Z,25.30
2022-09-01T11:10:54.566Z,25.40
2022-09-01T11:13:37.501Z,25.30
2022-09-01T11:19:39.077Z,25.60
2022-09-01T11:22:19.693Z,25.70
2022-09-01T11:25:00.210Z,25.80
2022-09-01T11:27:59.665Z,25.90
2022-09-01T11:30:38.472Z,25.90
2022-09-01T11:33:24.379Z,26.00
2022-09-01T11:36:01.712Z,26.00
2022-09-01T11:38:45.021Z,26.00
2022-09-01T11:41:31.324Z,26.10
2022-09-01T11:44:00.278Z,26.10
2022-09-01T11:46:32.620Z,26.20
2022-09-01T11:49:06.521Z,26.20
2022-09-01T11:51:45.215Z,26.20
2022-09-01T11:54:14.860Z,26.20
2022-09-01T11:56:42.994Z,26.30
2022-09-01T11:59:12.308Z,26.30
2022-09-01T12:01:41.209Z,26.30
2022-09-01T12:04:23.967Z,26.40
2022-09-01T12:07:00.400Z,26.40
2022-09-01T12:09:36.421Z,26.40
2022-09-01T12:12:06.607Z,26.50
2022-09-01T12:14:55.063Z,26.60
2022-09-01T12:17:23.472Z,26.70
2022-09-01T12:19:51.509Z,26.70
2022-09-01T12:22:23.021Z,26.70
2022-09-01T12:24:53.153Z,26.60
2022-09-01T12:27:23.154Z,26.60
2022-09-01T12:29:51.838Z,26.70
2022-09-01T12:32:20.729Z,26.70
2022-09-01T12:35:05.641Z,26.60
2022-09-01T12:37:39.011Z,26.70
2022-09-01T12:40:22.052Z,26.80
2022-09-01T12:42:52.812Z,26.70
2022-09-01T12:45:40.443Z,26.90
2022-09-01T12:48:08.557Z,26.90
2022-09-01T12:50:45.827Z,26.90
2022-09-01T12:53:25.770Z,26.90
2022-09-01T12:56:00.804Z,26.90
2022-09-01T12:58:31.870Z,27.10
2022-09-01T13:01:05.258Z,27.00
2022-09-01T13:03:34.540Z,27.00
2022-09-01T13:06:04.770Z,27.10
2022-09-01T13:08:37.454Z,27.10
2022-09-01T13:11:11.247Z,27.20
2022-09-01T13:13:39.719Z,27.00
2022-09-01T13:16:12.850Z,27.10
2022-09-01T13:21:31.369Z,27.40
2022-09-01T13:24:01.357Z,27.20
2022-09-01T13:26:31.574Z,27.20
2022-09-01T13:29:00.092Z,27.30
2022-09-01T13:31:30.185Z,27.40
2022-09-01T13:34:21.687Z,27.40
2022-09-01T13:36:51.656Z,27.40
2022-09-01T13:39:23.022Z,27.10
2022-09-01T13:41:51.055Z,27.00
2022-09-01T13:44:19.469Z,26.90
2022-09-01T13:52:24.220Z,27.10
2022-09-01T13:54:53.922Z,27.30
2022-09-01T13:57:21.813Z,27.20
2022-09-01T13:59:49.806Z,27.10
2022-09-01T14:02:17.756Z,26.90
2022-09-01T14:04:47.155Z,27.10
2022-09-01T14:07:16.127Z,27.20
2022-09-01T14:09:44.201Z,27.20
2022-09-01T14:12:14.332Z,27.30
2022-09-01T14:17:30.288Z,27.40
2022-09-01T14:19:58.449Z,27.40
2022-09-01T14:22:26.524Z,27.30
2022-09-01T14:24:54.708Z,27.30
2022-09-01T14:27:24.173Z,27.30
2022-09-01T14:29:54.848Z,27.40
2022-09-01T14:32:26.876Z,27.40
2022-09-01T14:34:55.076Z,27.40
2022-09-01T14:37:23.522Z,27.50
2022-09-01T14:39:51.606Z,27.40
2022-09-01T14:42:20.050Z,27.40
2022-09-01T14:44:49.760Z,27.50
2022-09-01T14:47:19.261Z,27.40
2022-09-01T14:49:48.747Z,27.30
2022-09-01T14:52:18.628Z,27.30
2022-09-01T14:54:46.707Z,27.40
2022-09-01T14:57:37.885Z,27.50
2022-09-01T15:00:05.992Z,27.60
2022-09-01T15:02:34.177Z,27.60
2022-09-01T15:05:02.336Z,27.70
2022-09-01T15:07:30.418Z,27.80
2022-09-01T15:09:59.010Z,27.80
2022-09-01T15:12:31.100Z,27.90
2022-09-01T15:14:59.844Z,28.00
2022-09-01T15:17:30.178Z,28.00
2022-09-01T15:20:19.379Z,28.00
2022-09-01T15:22:47.603Z,28.10
2022-09-01T15:25:15.689Z,28.20
2022-09-01T15:27:44.040Z,28.20
2022-09-01T15:30:17.134Z,28.20
2022-09-01T15:32:49.206Z,28.20
2022-09-01T15:35:18.203Z,28.20
2022-09-01T15:37:47.829Z,28.20
2022-09-01T15:40:16.955Z,28.30
2022-09-01T15:42:45.506Z,28.20
2022-09-01T15:45:17.114Z,28.20
2022-09-01T15:47:48.321Z,28.30
2022-09-01T15:50:21.082Z,28.20
2022-09-01T15:52:52.802Z,28.30
2022-09-01T15:55:24.360Z,28.30
2022-09-01T15:57:55.008Z,28.30
2022-09-01T16:00:24.991Z,28.30
2022-09-01T16:02:56.527Z,28.30
2022-09-01T16:05:32.160Z,28.80
2022-09-01T16:08:03.135Z,29.10
2022-09-01T16:10:36.537Z,29.20
2022-09-01T16:13:05.761Z,29.40
2022-09-01T16:15:35.434Z,29.40
2022-09-01T16:18:24.349Z,29.30
2022-09-01T16:21:00.449Z,29.30
2022-09-01T16:23:37.577Z,29.30
2022-09-01T16:26:05.895Z,29.40
2022-09-01T16:28:36.564Z,29.50
2022-09-01T16:31:09.282Z,29.50
2022-09-01T16:33:39.449Z,29.60
2022-09-01T16:36:19.776Z,29.60
2022-09-01T16:38:51.281Z,29.50
2022-09-01T16:41:42.380Z,29.50
2022-09-01T16:44:24.640Z,29.60
2022-09-01T16:47:03.626Z,29.50
2022-09-01T16:49:37.906Z,29.40
2022-09-01T16:52:12.899Z,29.20
2022-09-01T16:54:54.348Z,29.10
2022-09-01T16:57:31.483Z,29.30
2022-09-01T17:00:01.683Z,29.40
2022-09-01T17:02:42.187Z,29.40
2022-09-01T17:05:26.048Z,29.50
2022-09-01T17:08:06.889Z,29.20
2022-09-01T17:10:43.054Z,29.00
2022-09-01T17:13:20.123Z,28.70
2022-09-01T17:15:55.534Z,28.80
2022-09-01T17:18:33.338Z,28.90
2022-09-01T17:21:11.109Z,28.70
2022-09-01T17:23:43.070Z,28.50
2022-09-01T17:26:18.199Z,28.30
2022-09-01T17:28:55.118Z,28.20
2022-09-01T17:31:35.994Z,28.10
2022-09-01T17:34:14.394Z,28.00
2022-09-01T17:36:53.938Z,27.90
2022-09-01T17:39:36.461Z,27.90
2022-09-01T17:42:11.500Z,27.60
2022-09-01T17:44:46.115Z,27.30
2022-09-01T17:47:23.219Z,27.20
2022-09-01T17:49:58.815Z,26.90
2022-09-01T17:52:45.252Z,26.80
2022-09-01T17:55:35.049Z,26.80
2022-09-01T17:58:09.697Z,26.50
2022-09-01T18:00:44.529Z,26.30
2022-09-01T18:03:30.509Z,26.10
2022-09-01T18:06:05.313Z,26.00
2022-09-01T18:08:40.343Z,25.80
2022-09-01T18:11:13.108Z,25.50
2022-09-01T18:13:53.181Z,25.30
2022-09-01T18:16:24.798Z,25.10
2022-09-01T18:18:53.539Z,25.00
2022-09-01T18:21:24.372Z,24.80
2022-09-01T18:23:59.272Z,24.60
2022-09-01T18:26:32.535Z,24.60
2022-09-01T18:29:06.249Z,24.40
2022-09-01T18:32:02.874Z,24.30
2022-09-01T18:34:42.999Z,24.20
2022-09-01T18:37:17.549Z,24.10
2022-09-01T18:39:58.854Z,24.00
2022-09-01T18:42:34.063Z,24.00
2022-09-01T18:45:13.520Z,23.90
2022-09-01T18:47:49.272Z,23.80
2022-09-01T18:50:24.951Z,23.70
2022-09-01T18:53:07.445Z,23.70
2022-09-01T18:55:46.699Z,23.50
2022-09-01T18:58:32.743Z,23.50
2022-09-01T19:01:05.970Z,23.30
2022-09-01T19:03:38.683Z,23.20
2022-09-01T19:06:18.777Z,23.10
2022-09-01T19:08:58.536Z,23.00
2022-09-01T19:11:40.875Z,22.70
2022-09-01T19:14:19.146Z,22.80
2022-09-01T19:17:00.172Z,22.70
2022-09-01T19:19:40.020Z,22.60
2022-09-01T19:22:09.059Z,22.50
2022-09-01T19:24:44.623Z,22.50
2022-09-01T19:27:17.239Z,22.40
2022-09-01T19:29:48.665Z,22.30
2022-09-01T19:32:22.342Z,22.30
2022-09-01T19:34:56.685Z,22.30
2022-09-01T19:37:25.343Z,22.10
2022-09-01T19:39:54.677Z,22.00
2022-09-01T19:42:28.183Z,21.90
2022-09-01T19:45:06.660Z,21.90
2022-09-01T19:47:40.416Z,21.80
2022-09-01T19:50:17.782Z,21.80
2022-09-01T19:52:56.776Z,21.70
2022-09-01T19:55:31.516Z,21.60
2022-09-01T19:58:05.841Z,21.60
2022-09-01T20:00:50.912Z,21.40
2022-09-01T20:03:23.611Z,21.40
2022-09-01T20:05:56.973Z,21.40
2022-09-01T20:08:36.124Z,21.40
2022-09-01T20:11:11.103Z,21.30
2022-09-01T20:14:17.476Z,21.30
2022-09-01T20:16:48.535Z,21.20
2022-09-01T20:19:29.675Z,21.10
2022-09-01T20:22:08.709Z,21.10
2022-09-01T20:24:39.631Z,21.00
2022-09-01T20:27:17.615Z,20.90
2022-09-01T20:29:55.826Z,20.90
2022-09-01T20:32:30.403Z,20.80
2022-09-01T20:35:02.697Z,20.80
2022-09-01T20:37:36.942Z,20.70
2022-09-01T20:40:07.858Z,20.70
2022-09-01T20:42:43.788Z,20.60
2022-09-01T20:45:17.034Z,20.50
2022-09-01T20:47:50.433Z,20.40
2022-09-01T20:50:20.532Z,20.30
2022-09-01T20:53:02.468Z,20.30
2022-09-01T20:55:36.247Z,20.20
2022-09-01T20:58:13.019Z,20.20
2022-09-01T21:00:49.303Z,20.00
2022-09-01T21:03:33.811Z,20.10
2022-09-01T21:06:12.482Z,20.00
2022-09-01T21:08:46.685Z,19.90
2022-09-01T21:11:33.435Z,19.80
2022-09-01T21:14:14.953Z,19.80
2022-09-01T21:16:56.291Z,19.80
2022-09-01T21:19:30.860Z,19.70
2022-09-01T21:22:05.786Z,19.60
2022-09-01T21:24:33.816Z,19.50
2022-09-01T21:27:05.131Z,19.50
2022-09-01T21:29:44.341Z,19.50
2022-09-01T21:32:15.967Z,19.50
2022-09-01T21:34:44.209Z,19.40
2022-09-01T21:37:12.757Z,19.30
2022-09-01T21:39:41.256Z,19.30
2022-09-01T21:42:12.432Z,19.30
2022-09-01T21:44:41.982Z,19.30
2022-09-01T21:47:10.491Z,19.20
2022-09-01T21:49:40.161Z,19.20
2022-09-01T21:52:08.075Z,19.10
2022-09-01T21:54:37.170Z,19.10
2022-09-01T21:57:05.586Z,19.10
2022-09-01T21:59:33.865Z,19.00
2022-09-01T22:02:01.847Z,19.00
2022-09-01T22:04:29.794Z,19.00
2022-09-01T22:06:59.080Z,19.00
2022-09-01T22:09:27.025Z,19.00
2022-09-01T22:11:54.966Z,19.00
2022-09-01T22:14:23.237Z,18.90
2022-09-01T22:16:51.613Z,18.90
2022-09-01T22:19:20.299Z,18.90
2022-09-01T22:21:48.485Z,18.80
2022-09-01T22:24:19.409Z,18.80
2022-09-01T22:26:48.886Z,18.80
2022-09-01T22:29:17.615Z,18.70
2022-09-01T22:31:46.040Z,18.70
2022-09-01T22:34:14.580Z,18.90
2022-09-01T22:36:46.516Z,18.60
2022-09-01T22:39:15.983Z,18.70
2022-09-01T22:41:45.544Z,18.60
2022-09-01T22:44:13.627Z,18.50
2022-09-01T22:46:42.119Z,18.60
2022-09-01T22:49:11.819Z,18.60
2022-09-01T22:51:41.553Z,18.40
2022-09-01T22:54:10.985Z,18.50
2022-09-01T22:56:40.478Z,18.40
2022-09-01T22:59:13.132Z,18.40
2022-09-01T23:01:45.021Z,18.40
2022-09-01T23:04:18.130Z,18.20
2022-09-01T23:06:48.694Z,18.20
2022-09-01T23:09:17.363Z,18.20
2022-09-01T23:11:45.986Z,18.10
2022-09-01T23:14:15.378Z,18.20
2022-09-01T23:16:43.568Z,18.00
2022-09-01T23:19:12.010Z,17.90
2022-09-01T23:21:40.625Z,17.90
2022-09-01T23:24:09.314Z,18.00
2022-09-01T23:26:37.584Z,17.80
2022-09-01T23:29:06.350Z,17.80
2022-09-01T23:31:38.547Z,17.70
2022-09-01T23:34:07.858Z,17.70
2022-09-01T23:36:36.747Z,17.70
2022-09-01T23:39:05.777Z,17.60
2022-09-01T23:41:38.890Z,17.60
2022-09-01T23:44:10.594Z,17.70
2022-09-01T23:46:42.921Z,17.60
2022-09-01T23:49:11.944Z,17.60
2022-09-01T23:51:39.913Z,17.60
2022-09-01T23:54:08.461Z,17.60
2022-09-01T23:56:36.499Z,17.50
2022-09-01T23:59:05.454Z,17.50
